Time;durP1;ratioP1;P1;durP2;ratioP2;P2;SDS_P1;SDS_P2;PMS_P1;PMS_P2;Temp;Humidity;BMP_temperature;BMP_pressure;BME280_temperature;BME280_humidity;BME280_pressure;Samples;Min_cycle;Max_cycle;Signal;HPM_P1;HPM_P2
2022/10/06 00:01:18;;;;;;;24.47;7.53;;;;;;;42.47;32.29;101059.75;6126371;23;20380;-72
2022/10/06 00:03:45;;;;;;;24.67;5.83;;;;;;;42.57;31.96;101050.38;6100110;23;20414;-73
2022/10/06 00:06:16;;;;;;;23.07;4.90;;;;;;;42.51;31.76;101038.09;6099897;23;20775;-72
2022/10/06 00:08:44;;;;;;;8.87;4.33;;;;;;;42.71;31.79;101045.47;6100106;23;20386;-73
2022/10/06 00:11:11;;;;;;;13.23;5.43;;;;;;;42.96;31.33;101045.53;6099909;23;20484;-73
2022/10/06 00:13:38;;;;;;;11.37;4.37;;;;;;;42.62;32.14;101042.03;6099816;23;20786;-73
2022/10/06 00:16:15;;;;;;;8.73;5.30;;;;;;;42.70;31.98;101037.63;6099807;23;20918;-72
2022/10/06 00:18:42;;;;;;;9.97;4.33;;;;;;;42.69;31.78;101033.31;6099873;23;20393;-73
2022/10/06 00:21:08;;;;;;;9.50;6.13;;;;;;;42.52;31.85;101034.22;6099929;23;20417;-72
2022/10/06 00:23:34;;;;;;;9.67;3.73;;;;;;;42.60;31.88;101033.38;6126194;23;20442;-72
2022/10/06 00:26:00;;;;;;;12.40;4.50;;;;;;;42.51;32.05;101040.81;6099817;23;20968;-72
2022/10/06 00:28:26;;;;;;;11.40;5.20;;;;;;;42.11;32.52;101033.88;6099821;23;20390;-73
2022/10/06 00:30:55;;;;;;;10.10;4.20;;;;;;;42.25;32.71;101028.19;6126183;23;20369;-74
2022/10/06 00:33:21;;;;;;;10.83;5.17;;;;;;;42.44;31.78;101019.53;6099892;23;20485;-74
2022/10/06 00:35:54;;;;;;;10.13;5.13;;;;;;;41.85;32.59;101014.97;6099735;23;20382;-74
2022/10/06 00:38:20;;;;;;;11.67;7.10;;;;;;;41.50;33.47;101017.06;6126199;23;20446;-74
2022/10/06 00:40:48;;;;;;;14.03;6.57;;;;;;;41.89;32.74;101020.56;6099815;23;20485;-74
2022/10/06 00:43:46;;;;;;;16.10;4.83;;;;;;;42.14;32.62;101024.22;6099606;23;20386;-73
2022/10/06 00:46:38;;;;;;;12.20;4.37;;;;;;;42.27;32.17;101019.69;6099770;23;20430;-74
2022/10/06 00:49:25;;;;;;;11.40;5.37;;;;;;;42.03;32.87;101017.56;6082062;23;20417;-74
2022/10/06 00:51:58;;;;;;;11.40;5.00;;;;;;;42.03;32.58;101007.47;6099794;23;20390;-74
2022/10/06 00:54:25;;;;;;;19.97;6.40;;;;;;;42.07;32.77;101004.88;6099505;23;20393;-74
2022/10/06 00:56:51;;;;;;;10.43;4.33;;;;;;;42.13;32.47;101009.00;6099736;23;20469;-74
2022/10/06 00:59:18;;;;;;;14.50;4.70;;;;;;;41.60;33.41;101004.97;6099597;23;20397;-74
2022/10/06 01:01:57;;;;;;;9.93;4.60;;;;;;;41.61;33.41;101007.38;6126025;23;20386;-74
2022/10/06 01:04:23;;;;;;;10.70;5.33;;;;;;;41.74;32.86;100994.69;6099529;23;20396;-74
2022/10/06 01:06:53;;;;;;;11.20;5.00;;;;;;;42.22;32.18;100995.34;6099466;23;20895;-74
2022/10/06 01:09:21;;;;;;;11.17;5.00;;;;;;;41.88;32.66;101001.81;6099518;23;20918;-74
2022/10/06 01:11:51;;;;;;;12.83;4.97;;;;;;;42.23;31.79;101002.38;6126242;23;20363;-74
2022/10/06 01:14:21;;;;;;;11.30;5.10;;;;;;;41.79;32.65;101010.03;6099466;23;20433;-74
2022/10/06 01:16:57;;;;;;;17.83;5.00;;;;;;;41.80;32.90;101008.91;6070748;23;20856;-73
2022/10/06 01:19:38;;;;;;;11.30;4.97;;;;;;;42.02;32.42;101005.88;6070688;23;20789;-73
2022/10/06 01:22:07;;;;;;;11.93;3.87;;;;;;;41.98;32.75;101004.94;6096577;23;20408;-72
2022/10/06 01:24:34;;;;;;;10.47;5.73;;;;;;;41.95;32.61;101013.00;6070771;23;20429;-72
2022/10/06 01:27:01;;;;;;;10.73;4.30;;;;;;;41.38;33.55;101005.25;6096465;23;20466;-72
2022/10/06 01:29:27;;;;;;;16.50;5.97;;;;;;;41.92;32.92;101000.00;6070770;23;20382;-72
2022/10/06 01:31:54;;;;;;;8.93;4.63;;;;;;;41.88;33.35;101001.81;6071268;23;20366;-73
2022/10/06 01:34:20;;;;;;;13.60;5.47;;;;;;;42.03;32.65;100995.78;6072737;23;20446;-73
2022/10/06 01:36:46;;;;;;;10.93;5.20;;;;;;;41.99;32.81;101003.84;6072657;23;20457;-72
2022/10/06 01:39:12;;;;;;;7.33;3.83;;;;;;;41.54;33.08;101009.00;6098377;23;20430;-72
2022/10/06 01:41:38;;;;;;;13.20;5.50;;;;;;;41.75;32.75;101004.47;6072622;23;20380;-73
2022/10/06 01:44:04;;;;;;;18.57;5.23;;;;;;;41.65;32.81;101001.28;6072572;23;20379;-73
2022/10/06 01:46:30;;;;;;;8.33;4.33;;;;;;;42.02;32.41;100997.69;6073037;23;20426;-73
2022/10/06 01:48:57;;;;;;;13.40;4.73;;;;;;;42.29;32.01;100990.13;6096619;23;20382;-74
2022/10/06 01:51:23;;;;;;;14.47;5.03;;;;;;;41.88;32.37;100994.44;6072351;23;20852;-74
2022/10/06 01:53:49;;;;;;;24.30;6.43;;;;;;;41.79;32.40;100994.47;6072449;23;20410;-73
2022/10/06 01:56:15;;;;;;;11.67;4.00;;;;;;;41.89;32.86;100989.78;6096332;23;20383;-73
2022/10/06 01:58:41;;;;;;;7.83;5.17;;;;;;;41.78;32.73;100984.72;6096599;23;20383;-73
2022/10/06 02:01:09;;;;;;;13.03;4.37;;;;;;;41.68;33.31;100984.25;6073267;23;20379;-73
2022/10/06 02:03:37;;;;;;;12.40;5.07;;;;;;;41.74;33.20;100993.84;6072299;23;20852;-73
2022/10/06 02:06:03;;;;;;;12.30;4.33;;;;;;;41.88;33.10;100988.19;6072326;23;20986;-73
2022/10/06 02:08:30;;;;;;;8.77;4.23;;;;;;;42.10;32.79;100993.31;6072325;23;20379;-73
2022/10/06 02:10:56;;;;;;;13.93;6.90;;;;;;;41.70;33.37;100971.94;6072319;23;20387;-73
2022/10/06 02:13:26;;;;;;;10.70;5.50;;;;;;;42.14;32.69;100972.44;6072266;23;20383;-73
2022/10/06 02:15:57;;;;;;;14.30;5.50;;;;;;;41.43;33.80;100969.66;6090803;23;20433;-73
2022/10/06 02:18:23;;;;;;;14.70;4.90;;;;;;;41.73;32.88;100963.09;6127534;23;20362;-73
2022/10/06 02:20:49;;;;;;;13.00;4.83;;;;;;;41.05;34.02;100970.44;6101027;23;20424;-74
2022/10/06 02:23:16;;;;;;;14.67;5.40;;;;;;;41.59;32.79;100959.81;6101078;23;20386;-74
2022/10/06 02:25:42;;;;;;;11.33;4.87;;;;;;;41.56;32.79;100952.31;6100875;23;20509;-73
2022/10/06 02:28:08;;;;;;;11.47;5.43;;;;;;;41.39;32.95;100955.13;6101072;23;20417;-73
2022/10/06 02:30:35;;;;;;;10.77;6.20;;;;;;;41.72;32.88;100952.53;6127373;23;20920;-73
2022/10/06 02:33:01;;;;;;;15.30;5.63;;;;;;;41.70;32.93;100955.59;6127259;23;20359;-72
2022/10/06 02:35:27;;;;;;;11.40;5.60;;;;;;;42.17;32.54;100954.66;6127171;23;20425;-73
2022/10/06 02:37:53;;;;;;;15.53;4.67;;;;;;;41.60;33.23;100951.31;6100975;23;20390;-73
2022/10/06 02:40:19;;;;;;;7.30;4.00;;;;;;;41.49;33.64;100954.75;6100972;23;20882;-72
2022/10/06 02:42:45;;;;;;;9.63;5.10;;;;;;;41.72;33.26;100945.16;6127147;23;20398;-73
2022/10/06 02:45:11;;;;;;;15.20;4.80;;;;;;;42.10;32.95;100955.16;6100749;23;20429;-73
2022/10/06 02:47:37;;;;;;;16.73;5.93;;;;;;;42.06;32.42;100954.25;6100900;23;20397;-73
2022/10/06 02:50:06;;;;;;;11.73;5.37;;;;;;;40.88;34.55;100949.50;6076903;23;20918;-73
2022/10/06 02:52:35;;;;;;;15.40;5.80;;;;;;;41.46;33.00;100953.47;6101443;23;20363;-73
2022/10/06 02:55:05;;;;;;;13.33;5.10;;;;;;;41.64;33.01;100956.91;6101311;23;20453;-73
2022/10/06 02:57:31;;;;;;;15.77;5.30;;;;;;;41.20;32.90;100953.59;6100627;23;20420;-73
2022/10/06 02:59:57;;;;;;;14.67;5.10;;;;;;;41.57;32.68;100953.91;6100615;23;20418;-73
2022/10/06 03:02:23;;;;;;;14.57;6.57;;;;;;;41.38;33.18;100951.63;6100565;23;20795;-73
2022/10/06 03:04:49;;;;;;;13.57;5.17;;;;;;;41.81;32.78;100943.22;6126571;23;20362;-73
2022/10/06 03:07:16;;;;;;;9.83;5.13;;;;;;;41.81;33.10;100942.41;6101147;23;20449;-74
2022/10/06 03:09:42;;;;;;;8.33;4.80;;;;;;;42.02;32.52;100954.09;6100516;23;20394;-74
2022/10/06 03:12:08;;;;;;;12.30;5.20;;;;;;;42.19;32.60;100947.75;6100718;23;20389;-74
2022/10/06 03:14:34;;;;;;;10.03;4.93;;;;;;;42.06;32.73;100938.69;6100142;23;20386;-74
2022/10/06 03:17:00;;;;;;;10.13;4.77;;;;;;;41.92;32.20;100940.06;6127122;23;20785;-74
2022/10/06 03:19:26;;;;;;;15.57;5.60;;;;;;;41.98;32.39;100944.97;6100563;23;20385;-74
2022/10/06 03:21:52;;;;;;;13.43;5.30;;;;;;;41.54;33.05;100928.13;6126861;23;20363;-74
2022/10/06 03:24:18;;;;;;;14.60;6.67;;;;;;;41.97;33.24;100939.88;6101137;23;20464;-74
2022/10/06 03:26:46;;;;;;;15.93;5.77;;;;;;;41.91;33.14;100939.28;6100316;23;20480;-74
2022/10/06 03:29:14;;;;;;;10.17;5.67;;;;;;;41.97;32.82;100945.31;6126987;23;20413;-73
2022/10/06 03:31:42;;;;;;;11.60;5.13;;;;;;;41.62;33.34;100942.84;6100433;23;20448;-73
2022/10/06 03:34:08;;;;;;;11.33;4.50;;;;;;;41.80;32.79;100941.59;6100288;23;20388;-73
2022/10/06 03:36:35;;;;;;;12.50;6.30;;;;;;;41.47;33.79;100936.00;6126661;23;20370;-73
2022/10/06 03:39:03;;;;;;;14.77;6.40;;;;;;;41.95;33.12;100942.16;6100369;23;20377;-72
2022/10/06 03:41:31;;;;;;;12.27;6.27;;;;;;;41.78;33.21;100943.06;6101131;23;20816;-72
2022/10/06 03:43:58;;;;;;;10.20;4.83;;;;;;;41.93;33.12;100938.94;6100352;23;20377;-72
2022/10/06 03:46:27;;;;;;;11.10;5.60;;;;;;;41.62;33.38;100940.09;6100683;23;20918;-72
2022/10/06 03:48:56;;;;;;;15.40;5.73;;;;;;;41.59;33.28;100938.81;6100214;23;20453;-72
2022/10/06 03:51:21;;;;;;;15.83;6.07;;;;;;;42.02;32.41;100942.41;6076784;23;20378;-72
2022/10/06 03:53:50;;;;;;;17.10;7.73;;;;;;;42.19;32.21;100936.06;6100115;23;20855;-73
2022/10/06 03:56:25;;;;;;;10.97;5.50;;;;;;;41.70;32.99;100931.06;6075906;23;20378;-72
2022/10/06 03:58:54;;;;;;;20.77;6.43;;;;;;;41.68;33.37;100936.06;6100263;23;20382;-72
2022/10/06 04:01:23;;;;;;;24.40;6.40;;;;;;;42.03;32.76;100942.06;6099986;23;20468;-72
2022/10/06 04:03:50;;;;;;;13.50;5.20;;;;;;;41.80;33.26;100946.25;6076694;23;20445;-72
2022/10/06 04:06:18;;;;;;;21.80;6.23;;;;;;;41.31;33.61;100945.84;6100034;23;20425;-73
2022/10/06 04:08:46;;;;;;;22.73;6.47;;;;;;;41.82;32.88;100954.91;6099968;23;20414;-72
2022/10/06 04:11:27;;;;;;;11.40;5.40;;;;;;;41.55;33.43;100956.16;6100023;23;20382;-74
2022/10/06 04:13:59;;;;;;;14.50;5.30;;;;;;;41.41;34.20;100966.47;6100026;23;20405;-74
2022/10/06 04:16:33;;;;;;;15.77;6.47;;;;;;;41.28;34.18;100963.63;6125978;23;20418;-74
2022/10/06 04:19:01;;;;;;;12.03;6.20;;;;;;;41.39;33.76;100961.38;6099977;23;20377;-72
2022/10/06 04:21:29;;;;;;;14.43;5.90;;;;;;;41.21;33.59;100968.78;6100029;23;20405;-72
2022/10/06 04:23:57;;;;;;;15.40;5.37;;;;;;;41.35;33.89;100982.19;6099847;23;20473;-72
2022/10/06 04:26:26;;;;;;;14.50;5.50;;;;;;;41.85;33.08;100986.91;6099892;23;20448;-72
2022/10/06 04:28:53;;;;;;;11.07;6.03;;;;;;;41.75;33.02;100979.94;6099866;23;20488;-72
2022/10/06 04:31:21;;;;;;;13.80;5.53;;;;;;;41.64;33.29;100986.88;6099948;23;20430;-72
2022/10/06 04:33:54;;;;;;;10.27;4.63;;;;;;;41.93;33.01;100983.34;6099842;23;20385;-72
2022/10/06 04:36:23;;;;;;;11.30;5.70;;;;;;;42.06;32.60;100990.47;6099813;23;20377;-72
2022/10/06 04:38:57;;;;;;;16.43;6.47;;;;;;;42.03;33.11;100990.31;6099822;23;20386;-73
2022/10/06 04:41:26;;;;;;;16.10;8.87;;;;;;;42.33;32.51;101002.78;6126087;23;20351;-72
2022/10/06 04:43:52;;;;;;;20.03;8.70;;;;;;;41.78;33.00;100992.88;6099827;23;20783;-72
2022/10/06 04:46:20;;;;;;;17.87;7.40;;;;;;;41.91;32.89;101001.16;6099754;23;20430;-73
2022/10/06 04:48:48;;;;;;;10.30;5.40;;;;;;;41.83;32.94;100986.47;6099867;23;20382;-73
2022/10/06 04:51:15;;;;;;;12.20;6.10;;;;;;;41.14;33.91;100989.47;6099511;23;20866;-72
2022/10/06 04:53:45;;;;;;;17.90;6.97;;;;;;;41.43;33.30;101000.41;6099798;23;20378;-73
2022/10/06 04:56:13;;;;;;;13.27;6.43;;;;;;;41.43;33.55;101005.84;6099758;23;20384;-72
2022/10/06 04:58:41;;;;;;;17.97;11.53;;;;;;;40.68;34.67;101013.53;6099687;23;20441;-72
2022/10/06 05:01:17;;;;;;;16.53;10.60;;;;;;;41.57;33.31;101005.66;6099552;23;20843;-72
2022/10/06 05:03:45;;;;;;;23.80;14.80;;;;;;;41.98;32.27;101018.56;6099671;23;20393;-72
2022/10/06 05:06:14;;;;;;;22.40;13.40;;;;;;;42.12;32.72;101012.88;6099141;23;20425;-72
2022/10/06 05:08:40;;;;;;;20.40;16.57;;;;;;;41.96;32.58;101026.28;6099823;23;20408;-73
2022/10/06 05:11:11;;;;;;;24.60;14.17;;;;;;;41.97;32.87;101018.91;6099524;23;20378;-72
2022/10/06 05:13:38;;;;;;;18.13;13.97;;;;;;;41.99;33.09;101025.63;6099224;23;20386;-73
2022/10/06 05:16:07;;;;;;;20.30;11.73;;;;;;;42.01;33.25;101028.81;6099395;23;20461;-72
2022/10/06 05:18:34;;;;;;;17.37;8.37;;;;;;;41.77;33.03;101029.44;6099456;23;20863;-72
2022/10/06 05:21:11;;;;;;;21.10;8.90;;;;;;;41.96;32.68;101037.19;6099464;23;20444;-72
2022/10/06 05:23:39;;;;;;;11.70;6.93;;;;;;;42.01;32.84;101033.47;6099517;23;20850;-72
2022/10/06 05:26:06;;;;;;;15.57;7.47;;;;;;;41.98;32.56;101037.63;6125608;23;20431;-72
2022/10/06 05:28:33;;;;;;;16.43;7.87;;;;;;;42.00;32.43;101040.06;6099528;23;20386;-72
2022/10/06 05:31:02;;;;;;;18.90;8.93;;;;;;;41.24;33.90;101038.88;6099446;23;20382;-72
2022/10/06 05:33:31;;;;;;;21.83;9.30;;;;;;;41.30;34.16;101048.47;6099581;23;20428;-72
2022/10/06 05:36:00;;;;;;;16.97;8.80;;;;;;;41.37;33.44;101052.66;6099452;23;20387;-72
2022/10/06 05:38:28;;;;;;;16.83;10.53;;;;;;;41.76;32.90;101049.63;6099216;23;20378;-80
2022/10/06 05:41:06;;;;;;;13.57;7.80;;;;;;;41.91;32.58;101047.47;6098892;23;20404;-78
2022/10/06 05:43:33;;;;;;;21.27;11.23;;;;;;;41.97;32.62;101062.50;6099601;23;20378;-72
2022/10/06 05:46:01;;;;;;;17.20;10.43;;;;;;;41.56;33.32;101061.25;6099417;23;20438;-72
2022/10/06 05:48:28;;;;;;;14.70;7.53;;;;;;;41.88;33.18;101059.03;6123771;23;20424;-72
2022/10/06 05:51:03;;;;;;;26.90;9.20;;;;;;;42.08;32.76;101066.44;6098170;23;20388;-71
2022/10/06 05:53:32;;;;;;;14.00;8.10;;;;;;;41.87;32.79;101066.41;6121686;23;20768;-73
2022/10/06 05:56:10;;;;;;;31.00;11.40;;;;;;;41.92;32.58;101071.66;6099811;23;20351;-75
2022/10/06 05:58:38;;;;;;;43.50;15.70;;;;;;;40.96;34.50;101081.22;6121925;23;20397;-74
2022/10/06 06:01:15;;;;;;;34.57;18.13;;;;;;;41.76;33.13;101071.44;6074895;23;20382;-71
2022/10/06 06:03:46;;;;;;;58.47;31.23;;;;;;;40.82;34.74;101084.06;6098719;23;20358;-71
2022/10/06 06:06:17;;;;;;;47.50;29.50;;;;;;;40.65;35.20;101081.38;6073967;23;20535;-71
2022/10/06 06:08:44;;;;;;;47.40;26.90;;;;;;;40.96;35.03;101078.50;6123276;23;20413;-72
2022/10/06 06:11:10;;;;;;;49.20;27.53;;;;;;;41.16;34.11;101080.53;6098801;23;20448;-72
2022/10/06 06:13:36;;;;;;;49.67;32.37;;;;;;;41.44;33.88;101086.44;6098663;23;20488;-71
2022/10/06 06:16:05;;;;;;;62.10;28.77;;;;;;;41.60;33.61;101092.94;6124708;23;20426;-71
2022/10/06 06:18:35;;;;;;;46.07;28.17;;;;;;;41.89;33.23;101101.50;6101021;23;20367;-71
2022/10/06 06:21:07;;;;;;;60.37;27.37;;;;;;;41.32;34.05;101095.28;6127062;23;20436;-71
2022/10/06 06:23:44;;;;;;;31.73;22.13;;;;;;;41.54;33.99;101098.88;6101167;23;20874;-72
2022/10/06 06:26:14;;;;;;;27.60;20.33;;;;;;;41.13;34.49;101096.72;6127083;23;20421;-72
2022/10/06 06:28:41;;;;;;;24.67;15.17;;;;;;;41.85;33.41;101095.91;6100599;23;20397;-72
2022/10/06 06:31:10;;;;;;;26.33;15.53;;;;;;;41.86;33.59;101102.94;6126530;23;20694;-73
2022/10/06 06:33:38;;;;;;;27.80;15.87;;;;;;;41.75;33.69;101102.53;6123158;23;20409;-72
2022/10/06 06:36:16;;;;;;;25.60;14.40;;;;;;;41.91;33.04;101096.50;6123862;23;20392;-71
2022/10/06 06:38:46;;;;;;;25.00;13.40;;;;;;;42.23;32.77;101101.31;6126981;23;20372;-72
2022/10/06 06:41:21;;;;;;;25.70;14.13;;;;;;;42.31;32.35;101108.66;6100403;23;20389;-71
2022/10/06 06:43:48;;;;;;;35.47;14.57;;;;;;;42.53;32.62;101109.44;6100229;23;20396;-70
2022/10/06 06:46:17;;;;;;;37.07;15.87;;;;;;;41.92;33.35;101114.44;6125195;23;20509;-78
2022/10/06 06:48:44;;;;;;;20.27;12.10;;;;;;;41.95;33.31;101119.25;6100688;23;20448;-79
2022/10/06 06:51:11;;;;;;;22.40;13.73;;;;;;;42.35;32.59;101117.75;6100482;23;20720;-74
2022/10/06 06:53:38;;;;;;;34.27;16.00;;;;;;;42.09;32.87;101117.88;6098113;23;20406;-69
2022/10/06 06:56:05;;;;;;;30.80;14.93;;;;;;;42.38;32.56;101119.03;6124129;23;20461;-70
2022/10/06 06:58:31;;;;;;;26.57;14.43;;;;;;;42.55;32.30;101121.66;6097314;23;20418;-70
2022/10/06 07:01:24;;;;;;;34.07;16.70;;;;;;;42.22;32.50;101126.19;6096918;23;20390;-73
2022/10/06 07:03:57;;;;;;;23.50;15.17;;;;;;;42.48;32.36;101134.19;6093022;23;20390;-74
2022/10/06 07:06:26;;;;;;;20.47;13.10;;;;;;;42.13;32.88;101132.47;6121056;23;20443;-72
2022/10/06 07:08:54;;;;;;;25.63;11.10;;;;;;;42.51;32.26;101133.53;6097883;23;20793;-69
2022/10/06 07:11:29;;;;;;;21.37;11.53;;;;;;;42.73;32.14;101132.47;6100046;23;20382;-70
2022/10/06 07:13:59;;;;;;;29.70;14.00;;;;;;;42.91;31.64;101131.19;6098983;23;20381;-70
2022/10/06 07:25:11;;;;;;;16.30;9.10;;;;;;;42.59;32.07;101157.25;6125248;23;20679;-70
2022/10/06 07:27:43;;;;;;;15.20;10.27;;;;;;;42.43;32.28;101156.22;6125777;23;20481;-76
2022/10/06 07:30:10;;;;;;;24.20;11.57;;;;;;;42.69;31.93;101165.03;6099510;23;20743;-71
2022/10/06 07:32:36;;;;;;;19.80;11.60;;;;;;;42.74;31.81;101167.59;6127017;23;20358;-72
2022/10/06 07:35:05;;;;;;;20.90;13.43;;;;;;;42.57;31.97;101171.22;6126655;23;20393;-72
2022/10/06 07:37:33;;;;;;;19.93;11.63;;;;;;;42.63;31.87;101171.84;6100903;23;20378;-70
2022/10/06 07:40:00;;;;;;;24.27;13.57;;;;;;;42.51;31.87;101179.91;6100499;23;20386;-70
2022/10/06 07:42:26;;;;;;;28.13;12.00;;;;;;;42.60;31.71;101186.13;6126409;23;20794;-70
2022/10/06 07:47:37;;;;;;;21.73;11.33;;;;;;;42.69;31.45;101194.25;6124290;23;20438;-71
2022/10/06 07:50:05;;;;;;;26.93;11.80;;;;;;;42.75;31.72;101193.72;6124314;23;20746;-72
2022/10/06 07:52:32;;;;;;;26.67;11.90;;;;;;;43.22;31.28;101190.81;6124284;23;20370;-71
2022/10/06 07:54:58;;;;;;;25.43;13.83;;;;;;;43.32;31.16;101203.22;6074416;23;20392;-70
2022/10/06 07:57:33;;;;;;;17.23;7.87;;;;;;;42.85;31.57;101198.00;6098505;23;20413;-70
2022/10/06 08:00:00;;;;;;;19.37;8.50;;;;;;;43.27;31.29;101196.03;6099396;23;20737;-71
2022/10/06 08:02:27;;;;;;;22.63;9.77;;;;;;;42.91;31.53;101199.41;6126672;23;20389;-71
2022/10/06 08:04:53;;;;;;;23.50;8.30;;;;;;;43.07;31.60;101203.13;6100015;23;20394;-72
2022/10/06 08:07:19;;;;;;;17.37;8.07;;;;;;;43.12;31.49;101207.59;6099862;23;20441;-74
2022/10/06 08:09:45;;;;;;;14.63;8.70;;;;;;;42.95;31.46;101219.41;6099966;23;20395;-74
2022/10/06 08:14:56;;;;;;;15.73;9.27;;;;;;;42.58;31.91;101212.94;6125865;23;20513;-74
2022/10/06 08:17:22;;;;;;;19.10;11.80;;;;;;;43.02;31.64;101222.44;6126225;23;20394;-74
2022/10/06 08:19:48;;;;;;;15.70;10.20;;;;;;;43.21;31.90;101216.50;6124492;23;20381;-74
2022/10/06 08:22:14;;;;;;;21.37;9.53;;;;;;;43.00;31.51;101215.72;6126682;23;20374;-74
2022/10/06 08:24:41;;;;;;;26.83;11.00;;;;;;;42.78;32.02;101212.16;6099888;23;20394;-74
2022/10/06 08:27:08;;;;;;;17.20;8.60;;;;;;;43.06;31.76;101228.03;6099763;23;20525;-74
2022/10/06 08:29:34;;;;;;;17.70;7.83;;;;;;;43.08;31.56;101231.22;6099782;23;20737;-74
2022/10/06 08:32:01;;;;;;;16.77;12.30;;;;;;;43.39;31.35;101231.63;6099897;23;20382;-75
2022/10/06 08:34:27;;;;;;;20.73;10.40;;;;;;;43.23;31.58;101230.63;6099746;23;20397;-74
2022/10/06 08:36:54;;;;;;;20.73;8.43;;;;;;;43.24;31.24;101225.97;6099725;23;20386;-74
2022/10/06 08:39:20;;;;;;;12.80;9.03;;;;;;;42.54;32.65;101228.31;6126098;23;20374;-74
2022/10/06 08:41:50;;;;;;;22.10;7.73;;;;;;;42.47;32.41;101230.78;6099678;23;20752;-74
2022/10/06 08:44:31;;;;;;;12.40;7.10;;;;;;;43.18;31.68;101228.91;6126015;23;20358;-75
2022/10/06 08:47:04;;;;;;;18.60;8.03;;;;;;;43.34;31.36;101234.56;6099437;23;20429;-74
2022/10/06 08:49:45;;;;;;;13.60;7.57;;;;;;;43.13;32.05;101241.94;6126016;23;20437;-74
2022/10/06 08:52:16;;;;;;;11.40;6.73;;;;;;;43.02;31.83;101254.41;6099653;23;20489;-74
2022/10/06 08:55:19;;;;;;;24.87;9.37;;;;;;;42.80;32.18;101239.94;6099653;23;20382;-74
2022/10/06 08:57:57;;;;;;;10.00;6.43;;;;;;;42.40;32.37;101253.91;6099469;23;20393;-74
2022/10/06 09:00:23;;;;;;;21.53;8.17;;;;;;;42.19;33.04;101246.81;6099643;23;20390;-74
2022/10/06 09:02:50;;;;;;;10.17;6.10;;;;;;;42.82;32.07;101250.50;6099584;23;20406;-74
2022/10/06 09:05:25;;;;;;;17.40;9.80;;;;;;;42.53;32.92;101262.19;6099734;23;20418;-74
2022/10/06 09:08:11;;;;;;;12.57;6.83;;;;;;;42.57;32.93;101272.16;6125924;23;20377;-74
2022/10/06 09:10:43;;;;;;;26.30;7.90;;;;;;;42.81;32.61;101268.00;6099640;23;20421;-76
2022/10/06 09:13:24;;;;;;;16.60;6.57;;;;;;;42.51;32.88;101261.72;6099635;23;20464;-76
2022/10/06 09:15:59;;;;;;;14.40;7.20;;;;;;;42.75;32.55;101256.47;6125474;23;21005;-76
2022/10/06 09:18:34;;;;;;;15.10;7.47;;;;;;;42.66;32.91;101261.19;6099647;23;20418;-76
2022/10/06 09:21:02;;;;;;;15.83;7.73;;;;;;;43.31;31.60;101261.72;6099596;23;20449;-76
2022/10/06 09:23:49;;;;;;;14.00;5.00;;;;;;;43.47;31.50;101261.94;6099558;23;20768;-76
2022/10/06 09:26:21;;;;;;;15.73;6.97;;;;;;;43.11;31.78;101260.59;6099463;23;20426;-73
2022/10/06 09:28:48;;;;;;;9.20;5.40;;;;;;;43.11;31.86;101258.66;6099813;23;20393;-74
2022/10/06 09:31:21;;;;;;;14.10;6.80;;;;;;;43.23;31.63;101255.22;6099507;23;20417;-74
2022/10/06 09:33:53;;;;;;;14.10;6.07;;;;;;;42.80;31.88;101244.59;6099603;23;20391;-74
2022/10/06 09:36:19;;;;;;;14.60;6.47;;;;;;;43.34;31.68;101258.31;6125820;23;20676;-74
2022/10/06 09:38:56;;;;;;;17.53;6.67;;;;;;;43.01;32.17;101263.72;6099596;23;20424;-72
2022/10/06 09:41:28;;;;;;;15.00;6.07;;;;;;;42.86;32.05;101252.25;6100091;23;20358;-70
2022/10/06 09:44:00;;;;;;;11.90;5.93;;;;;;;43.08;31.75;101261.25;6076382;23;20485;-72
2022/10/06 09:46:34;;;;;;;8.20;6.17;;;;;;;43.59;31.43;101256.53;6100334;23;20952;-72
2022/10/06 09:49:25;;;;;;;14.10;4.80;;;;;;;43.13;31.99;101255.59;6075676;23;20800;-73
2022/10/06 09:52:00;;;;;;;12.43;5.87;;;;;;;43.40;31.71;101260.56;6099303;23;20398;-74
2022/10/06 09:54:27;;;;;;;8.30;5.30;;;;;;;43.67;31.25;101261.09;6101366;23;20396;-77
2022/10/06 09:56:55;;;;;;;11.67;5.47;;;;;;;43.47;31.55;101240.09;6101228;23;20385;-73
2022/10/06 09:59:24;;;;;;;14.63;5.13;;;;;;;42.70;32.42;101244.97;6101524;23;20385;-81
2022/10/06 10:01:54;;;;;;;11.27;6.30;;;;;;;43.37;31.35;101254.91;6101017;23;20396;-76
2022/10/06 10:06:39;;;;;;;23.53;8.50;;;;;;;43.01;32.29;101258.25;5172828;27;20343;-73
2022/10/06 10:09:20;;;;;;;14.73;7.37;;;;;;;43.08;31.79;101255.78;5151919;27;20444;-71
2022/10/06 10:14:44;;;;;;;14.40;6.07;;;;;;;43.24;31.81;101240.41;5151721;27;20515;-71
2022/10/06 10:17:19;;;;;;;16.47;6.10;;;;;;;43.37;31.34;101238.53;5132899;27;20410;-70
2022/10/06 10:19:53;;;;;;;12.63;5.43;;;;;;;43.54;30.88;101240.34;5132782;27;20438;-71
2022/10/06 10:22:29;;;;;;;11.03;4.63;;;;;;;43.54;30.85;101237.59;5132903;27;20413;-72
2022/10/06 10:25:39;;;;;;;23.73;7.30;;;;;;;43.39;31.11;101230.81;5132801;27;20445;-72
2022/10/06 10:28:35;;;;;;;19.93;6.17;;;;;;;43.25;31.40;101228.34;5132692;27;20432;-72
2022/10/06 10:31:21;;;;;;;10.40;5.60;;;;;;;43.32;31.43;101234.06;5126575;27;20479;-71
2022/10/06 10:33:59;;;;;;;28.03;5.23;;;;;;;43.40;31.01;101229.69;5133922;27;20394;-71
2022/10/06 10:40:53;;;;;;;9.77;4.83;;;;;;;41.24;34.79;101209.56;5173015;27;21002;-74
2022/10/06 10:43:39;;;;;;;12.73;5.70;;;;;;;42.28;33.23;101207.47;5133118;27;20418;-72
2022/10/06 10:46:10;;;;;;;11.93;6.43;;;;;;;42.81;32.17;101205.25;5117406;28;21028;-72
2022/10/06 10:48:39;;;;;;;17.63;5.50;;;;;;;43.34;31.30;101207.25;5112336;28;20484;-70
2022/10/06 10:51:14;;;;;;;14.63;5.57;;;;;;;43.57;31.25;101201.41;5112419;28;20496;-74
2022/10/06 10:53:45;;;;;;;17.23;8.00;;;;;;;43.26;31.37;101189.00;5092188;28;20416;-74
2022/10/06 10:56:15;;;;;;;16.20;7.43;;;;;;;43.20;31.30;101198.53;5092121;28;20431;-73
2022/10/06 10:58:43;;;;;;;13.80;5.80;;;;;;;43.02;31.22;101188.88;5091875;28;20463;-72
2022/10/06 11:01:28;;;;;;;26.93;8.83;;;;;;;43.42;31.05;101192.72;5110480;28;20457;-72
2022/10/06 11:03:56;;;;;;;13.23;6.33;;;;;;;43.52;30.66;101186.00;5110309;28;20396;-71
2022/10/06 11:06:35;;;;;;;15.63;6.97;;;;;;;43.73;30.69;101194.16;5091691;28;20445;-71
2022/10/06 11:09:12;;;;;;;17.67;5.90;;;;;;;43.91;30.69;101192.84;5091610;28;20419;-71
2022/10/06 11:12:12;;;;;;;9.03;4.53;;;;;;;43.87;30.11;101185.66;5110371;28;20415;-72
2022/10/06 11:15:03;;;;;;;13.93;4.97;;;;;;;43.51;30.75;101187.16;5089814;28;20481;-72
2022/10/06 11:17:41;;;;;;;13.43;5.17;;;;;;;43.66;30.87;101186.53;5091504;28;20958;-71
2022/10/06 11:20:36;;;;;;;15.70;7.13;;;;;;;43.72;31.07;101184.38;5091388;28;20451;-72
2022/10/06 11:23:02;;;;;;;14.77;5.13;;;;;;;43.94;30.22;101180.41;5091412;28;20433;-72
2022/10/06 11:25:49;;;;;;;15.03;7.17;;;;;;;43.48;31.32;101176.13;5091492;28;20440;-71
2022/10/06 11:28:21;;;;;;;16.23;6.93;;;;;;;43.58;30.74;101178.41;5091184;28;20400;-71
2022/10/06 11:31:02;;;;;;;15.40;5.63;;;;;;;43.01;31.69;101163.53;5109948;28;20461;-73
2022/10/06 11:33:52;;;;;;;16.27;7.40;;;;;;;43.61;31.34;101164.88;5091188;28;20412;-72
2022/10/06 11:37:01;;;;;;;16.30;6.43;;;;;;;43.68;30.67;101150.66;5090955;28;20444;-72
2022/10/06 11:39:51;;;;;;;10.87;5.30;;;;;;;43.12;31.31;101147.53;5034233;28;20486;-72
2022/10/06 11:42:35;;;;;;;10.10;5.40;;;;;;;43.56;30.96;101145.97;5067487;28;20928;-73
2022/10/06 11:45:12;;;;;;;17.20;6.30;;;;;;;43.64;30.89;101133.34;5069048;28;20440;-72
2022/10/06 11:48:02;;;;;;;15.73;5.17;;;;;;;43.29;31.50;101130.19;5067285;28;20402;-72
2022/10/06 11:50:33;;;;;;;22.07;7.73;;;;;;;43.26;31.34;101119.94;5062797;28;20487;-72
2022/10/06 11:53:00;;;;;;;17.17;8.57;;;;;;;43.45;31.21;101117.50;5068783;28;20856;-72
2022/10/06 11:55:27;;;;;;;16.83;9.03;;;;;;;43.53;30.98;101107.63;5075677;28;20394;-71
2022/10/06 11:58:12;;;;;;;13.67;7.53;;;;;;;43.24;31.37;101103.88;5075570;28;20760;-71